KFLO/FLO METAR and TAF weather

Enter ICAO airport designator
Station Type Date Time Source
KFLO METAR 2019/12/10 05:53 UTC NOAA

KFLO 100553Z AUTO 20009KT 10SM FEW037 18/15 A3002 RMK AO2 SLP164 T01830150 10189 20172 58003


Station Type Date Time Source
KFLO Decoded METAR 2019/12/10 05:53 UTC NOAA

FLORENCE REGIONAL AIRPORT, SC, United States (KFLO) 34-11N 079-44W 44M
Dec 10, 2019 - 12:53 AM EST / 2019.12.10 0553 UTC
Wind: from the SSW (200 degrees) at 10 MPH (9 KT):0
Visibility: 10 mile(s):0
Sky conditions: mostly clear
Temperature: 64.9 F (18.3 C)
Dew Point: 59.0 F (15.0 C)
Relative Humidity: 81%
Pressure (altimeter): 30.02 in. Hg (1016 hPa)
Pressure tendency: 0.01 inches (0.3 hPa) lower than three hours ago
ob: KFLO 100553Z AUTO 20009KT 10SM FEW037 18/15 A3002 RMK AO2 SLP164 T01830150 10189 20172 58003
cycle: 6

Station Type Date Time Source
KFLO TAF 2019/12/10 06:24 UTC NOAA

TAF KFLO 100521Z 1006/1106 20008KT P6SM SCT040
FM100800 20007KT P6SM SCT010 BKN200 WS020/22035KT
TEMPO 1009/1012 BKN008
FM101300 21006KT P6SM SCT010 BKN250 WS020/22040KT
FM101500 22012G20KT P6SM SCT040 SCT250
FM102200 20010KT P6SM BKN150

Example: see airport list